sensor_id;sensor_type;location;lat;lon;timestamp;P1;durP1;ratioP1;P2;durP2;ratioP2
65373;SDS011;52070;53.760;9.678;2022-07-29T00:00:58;5.60;;;1.40;;
65373;SDS011;52070;53.760;9.678;2022-07-29T00:03:25;3.55;;;1.33;;
65373;SDS011;52070;53.760;9.678;2022-07-29T00:05:52;2.25;;;1.40;;
65373;SDS011;52070;53.760;9.678;2022-07-29T00:08:20;2.13;;;1.35;;
65373;SDS011;52070;53.760;9.678;2022-07-29T00:10:47;4.93;;;1.40;;
65373;SDS011;52070;53.760;9.678;2022-07-29T00:13:14;6.95;;;1.38;;
65373;SDS011;52070;53.760;9.678;2022-07-29T00:15:43;2.03;;;1.40;;
65373;SDS011;52070;53.760;9.678;2022-07-29T00:18:12;5.78;;;1.60;;
65373;SDS011;52070;53.760;9.678;2022-07-29T00:20:39;2.72;;;1.13;;
65373;SDS011;52070;53.760;9.678;2022-07-29T00:23:06;3.97;;;1.50;;
65373;SDS011;52070;53.760;9.678;2022-07-29T00:25:33;4.13;;;1.50;;
65373;SDS011;52070;53.760;9.678;2022-07-29T00:28:01;3.78;;;1.33;;
65373;SDS011;52070;53.760;9.678;2022-07-29T00:30:28;6.50;;;1.40;;
65373;SDS011;52070;53.760;9.678;2022-07-29T00:32:56;4.45;;;1.50;;
65373;SDS011;52070;53.760;9.678;2022-07-29T00:35:23;6.13;;;1.40;;
65373;SDS011;52070;53.760;9.678;2022-07-29T00:38:08;3.78;;;1.60;;
65373;SDS011;52070;53.760;9.678;2022-07-29T00:40:35;2.78;;;1.30;;
65373;SDS011;52070;53.760;9.678;2022-07-29T00:43:02;3.80;;;1.42;;
65373;SDS011;52070;53.760;9.678;2022-07-29T00:45:29;2.83;;;1.33;;
65373;SDS011;52070;53.760;9.678;2022-07-29T00:47:58;12.88;;;2.20;;
65373;SDS011;52070;53.760;9.678;2022-07-29T00:50:25;3.15;;;1.30;;
65373;SDS011;52070;53.760;9.678;2022-07-29T00:52:53;2.20;;;1.38;;
65373;SDS011;52070;53.760;9.678;2022-07-29T00:55:20;3.22;;;1.30;;
65373;SDS011;52070;53.760;9.678;2022-07-29T00:57:50;4.72;;;1.50;;
65373;SDS011;52070;53.760;9.678;2022-07-29T01:00:18;5.32;;;1.50;;
65373;SDS011;52070;53.760;9.678;2022-07-29T01:02:47;2.45;;;1.35;;
65373;SDS011;52070;53.760;9.678;2022-07-29T01:05:17;2.70;;;1.40;;
65373;SDS011;52070;53.760;9.678;2022-07-29T01:07:46;4.97;;;1.40;;
65373;SDS011;52070;53.760;9.678;2022-07-29T01:10:18;2.42;;;1.50;;
65373;SDS011;52070;53.760;9.678;2022-07-29T01:12:47;6.22;;;1.55;;
65373;SDS011;52070;53.760;9.678;2022-07-29T01:15:15;2.67;;;1.63;;
65373;SDS011;52070;53.760;9.678;2022-07-29T01:17:43;2.47;;;1.80;;
65373;SDS011;52070;53.760;9.678;2022-07-29T01:20:14;4.38;;;1.70;;
65373;SDS011;52070;53.760;9.678;2022-07-29T01:23:01;3.83;;;1.77;;
65373;SDS011;52070;53.760;9.678;2022-07-29T01:25:57;4.07;;;1.85;;
65373;SDS011;52070;53.760;9.678;2022-07-29T01:28:40;2.75;;;1.65;;
65373;SDS011;52070;53.760;9.678;2022-07-29T01:31:16;4.40;;;1.48;;
65373;SDS011;52070;53.760;9.678;2022-07-29T01:33:48;2.35;;;1.50;;
65373;SDS011;52070;53.760;9.678;2022-07-29T01:38:59;5.03;;;1.95;;
65373;SDS011;52070;53.760;9.678;2022-07-29T01:41:32;3.83;;;1.90;;
65373;SDS011;52070;53.760;9.678;2022-07-29T01:44:06;3.17;;;1.60;;
65373;SDS011;52070;53.760;9.678;2022-07-29T01:46:39;4.18;;;1.70;;
65373;SDS011;52070;53.760;9.678;2022-07-29T01:49:11;4.68;;;2.00;;
65373;SDS011;52070;53.760;9.678;2022-07-29T01:51:43;5.07;;;2.10;;
65373;SDS011;52070;53.760;9.678;2022-07-29T01:54:15;3.47;;;2.03;;
65373;SDS011;52070;53.760;9.678;2022-07-29T01:56:47;5.68;;;2.03;;
65373;SDS011;52070;53.760;9.678;2022-07-29T01:59:17;5.88;;;2.20;;
65373;SDS011;52070;53.760;9.678;2022-07-29T02:01:45;4.60;;;1.67;;
65373;SDS011;52070;53.760;9.678;2022-07-29T02:04:14;2.92;;;1.70;;
65373;SDS011;52070;53.760;9.678;2022-07-29T02:06:43;3.72;;;1.85;;
65373;SDS011;52070;53.760;9.678;2022-07-29T02:09:12;4.55;;;1.92;;
65373;SDS011;52070;53.760;9.678;2022-07-29T02:11:40;5.82;;;1.92;;
65373;SDS011;52070;53.760;9.678;2022-07-29T02:14:11;3.45;;;1.88;;
65373;SDS011;52070;53.760;9.678;2022-07-29T02:16:42;5.93;;;2.03;;
65373;SDS011;52070;53.760;9.678;2022-07-29T02:19:11;4.55;;;2.45;;
65373;SDS011;52070;53.760;9.678;2022-07-29T02:21:39;4.68;;;2.50;;
65373;SDS011;52070;53.760;9.678;2022-07-29T02:24:07;4.50;;;2.05;;
65373;SDS011;52070;53.760;9.678;2022-07-29T02:26:37;4.75;;;1.90;;
65373;SDS011;52070;53.760;9.678;2022-07-29T02:29:07;3.00;;;2.00;;
65373;SDS011;52070;53.760;9.678;2022-07-29T02:31:36;3.38;;;2.15;;
65373;SDS011;52070;53.760;9.678;2022-07-29T02:34:07;4.50;;;2.15;;
65373;SDS011;52070;53.760;9.678;2022-07-29T02:36:35;4.18;;;1.95;;
65373;SDS011;52070;53.760;9.678;2022-07-29T02:39:03;5.93;;;2.63;;
65373;SDS011;52070;53.760;9.678;2022-07-29T02:41:33;4.50;;;2.47;;
65373;SDS011;52070;53.760;9.678;2022-07-29T02:44:09;7.10;;;2.40;;
65373;SDS011;52070;53.760;9.678;2022-07-29T02:49:12;2.72;;;1.85;;
65373;SDS011;52070;53.760;9.678;2022-07-29T02:51:43;3.92;;;2.15;;
65373;SDS011;52070;53.760;9.678;2022-07-29T02:54:14;4.28;;;2.08;;
65373;SDS011;52070;53.760;9.678;2022-07-29T02:56:47;4.38;;;1.95;;
65373;SDS011;52070;53.760;9.678;2022-07-29T02:59:18;4.70;;;1.90;;
65373;SDS011;52070;53.760;9.678;2022-07-29T03:01:51;4.57;;;2.13;;
65373;SDS011;52070;53.760;9.678;2022-07-29T03:04:21;8.30;;;1.90;;
65373;SDS011;52070;53.760;9.678;2022-07-29T03:06:53;5.50;;;1.98;;
65373;SDS011;52070;53.760;9.678;2022-07-29T03:09:24;5.75;;;2.00;;
65373;SDS011;52070;53.760;9.678;2022-07-29T03:11:53;9.55;;;2.20;;
65373;SDS011;52070;53.760;9.678;2022-07-29T03:14:21;2.42;;;2.15;;
65373;SDS011;52070;53.760;9.678;2022-07-29T03:16:49;5.68;;;2.00;;
65373;SDS011;52070;53.760;9.678;2022-07-29T03:19:17;5.07;;;2.20;;
65373;SDS011;52070;53.760;9.678;2022-07-29T03:21:47;6.75;;;2.10;;
65373;SDS011;52070;53.760;9.678;2022-07-29T03:24:27;4.85;;;2.20;;
65373;SDS011;52070;53.760;9.678;2022-07-29T03:26:57;3.45;;;1.90;;
65373;SDS011;52070;53.760;9.678;2022-07-29T03:29:24;3.03;;;1.88;;
65373;SDS011;52070;53.760;9.678;2022-07-29T03:31:52;3.13;;;2.05;;
65373;SDS011;52070;53.760;9.678;2022-07-29T03:34:19;7.18;;;2.47;;
65373;SDS011;52070;53.760;9.678;2022-07-29T03:36:47;3.40;;;2.00;;
65373;SDS011;52070;53.760;9.678;2022-07-29T03:39:17;6.07;;;2.30;;
65373;SDS011;52070;53.760;9.678;2022-07-29T03:41:47;3.60;;;1.98;;
65373;SDS011;52070;53.760;9.678;2022-07-29T03:44:16;5.93;;;2.13;;
65373;SDS011;52070;53.760;9.678;2022-07-29T03:46:45;3.72;;;2.00;;
65373;SDS011;52070;53.760;9.678;2022-07-29T03:49:16;5.55;;;2.30;;
65373;SDS011;52070;53.760;9.678;2022-07-29T03:51:44;10.23;;;2.10;;
65373;SDS011;52070;53.760;9.678;2022-07-29T03:54:12;3.92;;;2.55;;
65373;SDS011;52070;53.760;9.678;2022-07-29T03:56:40;4.22;;;2.20;;
65373;SDS011;52070;53.760;9.678;2022-07-29T03:59:11;4.38;;;2.00;;
65373;SDS011;52070;53.760;9.678;2022-07-29T04:01:41;7.10;;;2.15;;
65373;SDS011;52070;53.760;9.678;2022-07-29T04:04:08;5.10;;;2.28;;
65373;SDS011;52070;53.760;9.678;2022-07-29T04:06:39;5.10;;;2.55;;
65373;SDS011;52070;53.760;9.678;2022-07-29T04:09:06;7.05;;;2.20;;
65373;SDS011;52070;53.760;9.678;2022-07-29T04:11:35;6.32;;;2.25;;
65373;SDS011;52070;53.760;9.678;2022-07-29T04:14:03;5.60;;;2.20;;
65373;SDS011;52070;53.760;9.678;2022-07-29T04:16:30;3.67;;;2.33;;
65373;SDS011;52070;53.760;9.678;2022-07-29T04:18:57;6.80;;;2.47;;
65373;SDS011;52070;53.760;9.678;2022-07-29T04:21:24;5.15;;;2.00;;
65373;SDS011;52070;53.760;9.678;2022-07-29T04:23:51;5.70;;;2.10;;
65373;SDS011;52070;53.760;9.678;2022-07-29T04:26:19;4.40;;;2.20;;
65373;SDS011;52070;53.760;9.678;2022-07-29T04:28:48;4.05;;;1.98;;
65373;SDS011;52070;53.760;9.678;2022-07-29T04:31:15;2.35;;;2.15;;
65373;SDS011;52070;53.760;9.678;2022-07-29T04:33:42;5.82;;;2.10;;
65373;SDS011;52070;53.760;9.678;2022-07-29T04:36:09;6.82;;;2.22;;
65373;SDS011;52070;53.760;9.678;2022-07-29T04:38:37;7.13;;;2.75;;
65373;SDS011;52070;53.760;9.678;2022-07-29T04:41:04;5.50;;;2.72;;
65373;SDS011;52070;53.760;9.678;2022-07-29T04:43:32;4.30;;;2.50;;
65373;SDS011;52070;53.760;9.678;2022-07-29T04:46:00;4.32;;;2.40;;
65373;SDS011;52070;53.760;9.678;2022-07-29T04:48:28;4.90;;;2.25;;
65373;SDS011;52070;53.760;9.678;2022-07-29T04:50:57;6.05;;;2.22;;
65373;SDS011;52070;53.760;9.678;2022-07-29T04:53:24;6.57;;;2.47;;
65373;SDS011;52070;53.760;9.678;2022-07-29T04:55:52;5.97;;;2.20;;
65373;SDS011;52070;53.760;9.678;2022-07-29T04:58:19;3.45;;;2.00;;
65373;SDS011;52070;53.760;9.678;2022-07-29T05:00:46;6.15;;;2.13;;
65373;SDS011;52070;53.760;9.678;2022-07-29T05:03:14;3.10;;;2.13;;
65373;SDS011;52070;53.760;9.678;2022-07-29T05:05:41;3.58;;;2.25;;
65373;SDS011;52070;53.760;9.678;2022-07-29T05:08:08;7.88;;;2.60;;
65373;SDS011;52070;53.760;9.678;2022-07-29T05:10:35;3.78;;;2.50;;
65373;SDS011;52070;53.760;9.678;2022-07-29T05:13:03;4.65;;;2.40;;
65373;SDS011;52070;53.760;9.678;2022-07-29T05:15:31;3.03;;;1.73;;
65373;SDS011;52070;53.760;9.678;2022-07-29T05:17:59;4.55;;;2.13;;
65373;SDS011;52070;53.760;9.678;2022-07-29T05:20:27;6.82;;;2.30;;
65373;SDS011;52070;53.760;9.678;2022-07-29T05:22:55;5.43;;;1.92;;
65373;SDS011;52070;53.760;9.678;2022-07-29T05:25:23;3.75;;;1.83;;
65373;SDS011;52070;53.760;9.678;2022-07-29T05:27:50;4.85;;;2.10;;
65373;SDS011;52070;53.760;9.678;2022-07-29T05:30:17;6.63;;;2.15;;
65373;SDS011;52070;53.760;9.678;2022-07-29T05:32:44;5.40;;;2.20;;
65373;SDS011;52070;53.760;9.678;2022-07-29T05:35:13;5.68;;;2.28;;
65373;SDS011;52070;53.760;9.678;2022-07-29T05:37:42;5.32;;;1.80;;
65373;SDS011;52070;53.760;9.678;2022-07-29T05:40:09;5.53;;;2.20;;
65373;SDS011;52070;53.760;9.678;2022-07-29T05:42:37;4.72;;;2.03;;
65373;SDS011;52070;53.760;9.678;2022-07-29T05:45:04;4.53;;;2.00;;
65373;SDS011;52070;53.760;9.678;2022-07-29T05:47:32;7.38;;;2.08;;
65373;SDS011;52070;53.760;9.678;2022-07-29T05:49:59;5.40;;;2.10;;
65373;SDS011;52070;53.760;9.678;2022-07-29T05:52:26;10.77;;;2.50;;
65373;SDS011;52070;53.760;9.678;2022-07-29T05:54:55;5.47;;;2.35;;
65373;SDS011;52070;53.760;9.678;2022-07-29T05:57:22;8.30;;;2.20;;
65373;SDS011;52070;53.760;9.678;2022-07-29T05:59:50;14.35;;;2.17;;
65373;SDS011;52070;53.760;9.678;2022-07-29T06:02:18;7.50;;;2.28;;
65373;SDS011;52070;53.760;9.678;2022-07-29T06:04:45;8.80;;;2.53;;
65373;SDS011;52070;53.760;9.678;2022-07-29T06:07:12;5.30;;;2.30;;
65373;SDS011;52070;53.760;9.678;2022-07-29T06:09:39;6.00;;;2.58;;
65373;SDS011;52070;53.760;9.678;2022-07-29T06:12:08;11.23;;;2.33;;
65373;SDS011;52070;53.760;9.678;2022-07-29T06:14:35;4.15;;;2.13;;
65373;SDS011;52070;53.760;9.678;2022-07-29T06:17:03;5.53;;;2.20;;
65373;SDS011;52070;53.760;9.678;2022-07-29T06:19:30;10.48;;;2.38;;
65373;SDS011;52070;53.760;9.678;2022-07-29T06:22:00;8.50;;;2.63;;
65373;SDS011;52070;53.760;9.678;2022-07-29T06:24:27;5.28;;;2.08;;
65373;SDS011;52070;53.760;9.678;2022-07-29T06:26:54;10.30;;;2.13;;
65373;SDS011;52070;53.760;9.678;2022-07-29T06:29:22;7.88;;;2.20;;
65373;SDS011;52070;53.760;9.678;2022-07-29T06:31:49;9.07;;;1.98;;
65373;SDS011;52070;53.760;9.678;2022-07-29T06:34:16;5.38;;;1.92;;
65373;SDS011;52070;53.760;9.678;2022-07-29T06:36:44;5.47;;;2.00;;
65373;SDS011;52070;53.760;9.678;2022-07-29T06:39:11;6.25;;;2.13;;
65373;SDS011;52070;53.760;9.678;2022-07-29T06:41:38;5.25;;;2.33;;
65373;SDS011;52070;53.760;9.678;2022-07-29T06:44:05;6.22;;;2.20;;
65373;SDS011;52070;53.760;9.678;2022-07-29T06:46:33;6.20;;;2.28;;
65373;SDS011;52070;53.760;9.678;2022-07-29T06:49:00;5.78;;;2.00;;
65373;SDS011;52070;53.760;9.678;2022-07-29T06:51:28;6.80;;;2.35;;
65373;SDS011;52070;53.760;9.678;2022-07-29T06:53:55;5.07;;;2.20;;
65373;SDS011;52070;53.760;9.678;2022-07-29T06:56:22;8.18;;;2.15;;
65373;SDS011;52070;53.760;9.678;2022-07-29T06:58:49;4.45;;;1.92;;
65373;SDS011;52070;53.760;9.678;2022-07-29T07:01:16;5.90;;;2.20;;
65373;SDS011;52070;53.760;9.678;2022-07-29T07:03:45;3.33;;;1.95;;
65373;SDS011;52070;53.760;9.678;2022-07-29T07:06:12;8.80;;;2.20;;
65373;SDS011;52070;53.760;9.678;2022-07-29T07:08:39;6.68;;;1.92;;
65373;SDS011;52070;53.760;9.678;2022-07-29T07:11:06;5.30;;;1.90;;
65373;SDS011;52070;53.760;9.678;2022-07-29T07:13:33;6.78;;;2.15;;
65373;SDS011;52070;53.760;9.678;2022-07-29T07:16:00;5.35;;;2.20;;
65373;SDS011;52070;53.760;9.678;2022-07-29T07:18:27;5.93;;;1.90;;
65373;SDS011;52070;53.760;9.678;2022-07-29T07:20:56;5.63;;;2.00;;
65373;SDS011;52070;53.760;9.678;2022-07-29T07:23:24;5.03;;;1.98;;
65373;SDS011;52070;53.760;9.678;2022-07-29T07:25:51;5.05;;;2.15;;
65373;SDS011;52070;53.760;9.678;2022-07-29T07:28:19;4.15;;;2.08;;
65373;SDS011;52070;53.760;9.678;2022-07-29T07:30:46;4.03;;;2.05;;
65373;SDS011;52070;53.760;9.678;2022-07-29T07:33:13;5.40;;;1.98;;
65373;SDS011;52070;53.760;9.678;2022-07-29T07:35:43;9.10;;;2.25;;
65373;SDS011;52070;53.760;9.678;2022-07-29T07:38:12;4.97;;;2.20;;
65373;SDS011;52070;53.760;9.678;2022-07-29T07:40:39;4.40;;;2.00;;
65373;SDS011;52070;53.760;9.678;2022-07-29T07:43:06;5.80;;;2.40;;
65373;SDS011;52070;53.760;9.678;2022-07-29T07:45:33;3.78;;;1.92;;
65373;SDS011;52070;53.760;9.678;2022-07-29T07:48:02;6.72;;;2.55;;
65373;SDS011;52070;53.760;9.678;2022-07-29T07:50:29;6.60;;;2.10;;
65373;SDS011;52070;53.760;9.678;2022-07-29T07:52:56;5.38;;;2.60;;
65373;SDS011;52070;53.760;9.678;2022-07-29T07:55:25;7.13;;;2.25;;
65373;SDS011;52070;53.760;9.678;2022-07-29T07:57:53;6.68;;;2.10;;
65373;SDS011;52070;53.760;9.678;2022-07-29T08:00:20;5.60;;;2.08;;
65373;SDS011;52070;53.760;9.678;2022-07-29T08:02:48;5.72;;;2.17;;
65373;SDS011;52070;53.760;9.678;2022-07-29T08:05:15;11.68;;;2.28;;
65373;SDS011;52070;53.760;9.678;2022-07-29T08:07:44;3.40;;;1.92;;
65373;SDS011;52070;53.760;9.678;2022-07-29T08:10:11;7.97;;;2.40;;
65373;SDS011;52070;53.760;9.678;2022-07-29T08:12:40;6.65;;;2.30;;
65373;SDS011;52070;53.760;9.678;2022-07-29T08:15:07;7.43;;;1.90;;
65373;SDS011;52070;53.760;9.678;2022-07-29T08:17:37;4.57;;;2.10;;
65373;SDS011;52070;53.760;9.678;2022-07-29T08:20:05;8.15;;;2.55;;
65373;SDS011;52070;53.760;9.678;2022-07-29T08:22:32;5.63;;;2.78;;
65373;SDS011;52070;53.760;9.678;2022-07-29T08:24:59;6.75;;;2.30;;
65373;SDS011;52070;53.760;9.678;2022-07-29T08:27:26;4.35;;;2.22;;
65373;SDS011;52070;53.760;9.678;2022-07-29T08:29:57;6.18;;;2.10;;
65373;SDS011;52070;53.760;9.678;2022-07-29T08:32:24;5.07;;;2.10;;
65373;SDS011;52070;53.760;9.678;2022-07-29T08:34:53;5.13;;;2.40;;
65373;SDS011;52070;53.760;9.678;2022-07-29T08:37:20;6.72;;;2.63;;
65373;SDS011;52070;53.760;9.678;2022-07-29T08:39:47;3.55;;;2.10;;
65373;SDS011;52070;53.760;9.678;2022-07-29T08:42:14;5.05;;;2.10;;
65373;SDS011;52070;53.760;9.678;2022-07-29T08:44:42;5.95;;;2.28;;
65373;SDS011;52070;53.760;9.678;2022-07-29T08:47:10;8.57;;;2.22;;
65373;SDS011;52070;53.760;9.678;2022-07-29T08:49:40;7.75;;;2.17;;
65373;SDS011;52070;53.760;9.678;2022-07-29T08:52:09;6.20;;;2.33;;
65373;SDS011;52070;53.760;9.678;2022-07-29T08:54:37;8.32;;;2.90;;
65373;SDS011;52070;53.760;9.678;2022-07-29T08:57:05;5.63;;;2.22;;
65373;SDS011;52070;53.760;9.678;2022-07-29T08:59:33;5.13;;;2.40;;
65373;SDS011;52070;53.760;9.678;2022-07-29T09:02:01;8.38;;;2.65;;
65373;SDS011;52070;53.760;9.678;2022-07-29T09:04:30;8.60;;;2.33;;
65373;SDS011;52070;53.760;9.678;2022-07-29T09:07:00;5.60;;;2.17;;
65373;SDS011;52070;53.760;9.678;2022-07-29T09:09:31;4.57;;;2.08;;
65373;SDS011;52070;53.760;9.678;2022-07-29T09:12:00;5.10;;;2.33;;
65373;SDS011;52070;53.760;9.678;2022-07-29T09:14:29;5.35;;;2.30;;
65373;SDS011;52070;53.760;9.678;2022-07-29T09:16:56;4.88;;;2.20;;
65373;SDS011;52070;53.760;9.678;2022-07-29T09:19:24;7.47;;;2.22;;
65373;SDS011;52070;53.760;9.678;2022-07-29T09:21:54;7.78;;;2.60;;
65373;SDS011;52070;53.760;9.678;2022-07-29T09:24:26;7.78;;;2.40;;
65373;SDS011;52070;53.760;9.678;2022-07-29T09:27:06;6.90;;;2.30;;
65373;SDS011;52070;53.760;9.678;2022-07-29T09:29:36;4.65;;;2.40;;
65373;SDS011;52070;53.760;9.678;2022-07-29T09:32:05;5.88;;;2.33;;
65373;SDS011;52070;53.760;9.678;2022-07-29T09:34:35;5.85;;;2.17;;
65373;SDS011;52070;53.760;9.678;2022-07-29T09:37:04;3.50;;;2.10;;
65373;SDS011;52070;53.760;9.678;2022-07-29T09:39:32;6.53;;;2.45;;
65373;SDS011;52070;53.760;9.678;2022-07-29T09:42:01;6.03;;;2.13;;
65373;SDS011;52070;53.760;9.678;2022-07-29T09:44:40;5.60;;;1.95;;
65373;SDS011;52070;53.760;9.678;2022-07-29T09:47:08;5.75;;;2.30;;
65373;SDS011;52070;53.760;9.678;2022-07-29T09:49:35;10.85;;;2.60;;
65373;SDS011;52070;53.760;9.678;2022-07-29T09:52:18;5.38;;;2.25;;
65373;SDS011;52070;53.760;9.678;2022-07-29T09:54:45;9.80;;;2.22;;
65373;SDS011;52070;53.760;9.678;2022-07-29T09:57:21;5.15;;;2.28;;
65373;SDS011;52070;53.760;9.678;2022-07-29T09:59:55;7.57;;;2.30;;
65373;SDS011;52070;53.760;9.678;2022-07-29T10:02:27;4.85;;;2.20;;
65373;SDS011;52070;53.760;9.678;2022-07-29T10:04:56;5.63;;;2.20;;
65373;SDS011;52070;53.760;9.678;2022-07-29T10:07:24;7.05;;;1.90;;
65373;SDS011;52070;53.760;9.678;2022-07-29T10:09:52;8.75;;;2.78;;
65373;SDS011;52070;53.760;9.678;2022-07-29T10:12:21;5.68;;;2.03;;
65373;SDS011;52070;53.760;9.678;2022-07-29T10:14:49;7.70;;;2.40;;
65373;SDS011;52070;53.760;9.678;2022-07-29T10:17:16;4.05;;;1.73;;
65373;SDS011;52070;53.760;9.678;2022-07-29T10:19:44;5.85;;;1.77;;
65373;SDS011;52070;53.760;9.678;2022-07-29T10:22:14;3.05;;;1.60;;
65373;SDS011;52070;53.760;9.678;2022-07-29T10:24:42;4.88;;;1.90;;
65373;SDS011;52070;53.760;9.678;2022-07-29T10:27:10;9.65;;;1.70;;
65373;SDS011;52070;53.760;9.678;2022-07-29T10:29:37;5.53;;;1.80;;
65373;SDS011;52070;53.760;9.678;2022-07-29T10:32:20;4.43;;;1.60;;
65373;SDS011;52070;53.760;9.678;2022-07-29T10:35:15;4.32;;;1.50;;
65373;SDS011;52070;53.760;9.678;2022-07-29T10:38:10;9.77;;;1.88;;
65373;SDS011;52070;53.760;9.678;2022-07-29T10:40:54;5.68;;;1.60;;
65373;SDS011;52070;53.760;9.678;2022-07-29T10:43:46;2.10;;;1.30;;
65373;SDS011;52070;53.760;9.678;2022-07-29T10:46:15;5.13;;;1.80;;
65373;SDS011;52070;53.760;9.678;2022-07-29T10:51:51;3.33;;;1.40;;
65373;SDS011;52070;53.760;9.678;2022-07-29T10:54:36;6.05;;;1.85;;
65373;SDS011;52070;53.760;9.678;2022-07-29T10:57:12;4.45;;;1.75;;
65373;SDS011;52070;53.760;9.678;2022-07-29T10:59:46;2.88;;;1.33;;
65373;SDS011;52070;53.760;9.678;2022-07-29T11:05:20;6.50;;;1.60;;
65373;SDS011;52070;53.760;9.678;2022-07-29T11:10:51;5.80;;;2.42;;
65373;SDS011;52070;53.760;9.678;2022-07-29T11:16:19;4.97;;;1.70;;
65373;SDS011;52070;53.760;9.678;2022-07-29T11:21:46;3.53;;;1.30;;
65373;SDS011;52070;53.760;9.678;2022-07-29T11:24:15;3.60;;;1.42;;
65373;SDS011;52070;53.760;9.678;2022-07-29T11:26:44;4.20;;;1.48;;
65373;SDS011;52070;53.760;9.678;2022-07-29T11:29:18;3.97;;;1.60;;
65373;SDS011;52070;53.760;9.678;2022-07-29T11:31:48;6.63;;;1.58;;
65373;SDS011;52070;53.760;9.678;2022-07-29T11:34:21;4.75;;;1.50;;
65373;SDS011;52070;53.760;9.678;2022-07-29T11:42:45;5.07;;;1.55;;
65373;SDS011;52070;53.760;9.678;2022-07-29T11:45:27;5.22;;;1.70;;
65373;SDS011;52070;53.760;9.678;2022-07-29T11:48:16;5.77;;;1.57;;
65373;SDS011;52070;53.760;9.678;2022-07-29T11:50:44;4.13;;;1.50;;
65373;SDS011;52070;53.760;9.678;2022-07-29T11:53:12;5.75;;;1.75;;
65373;SDS011;52070;53.760;9.678;2022-07-29T11:55:40;8.18;;;1.60;;
65373;SDS011;52070;53.760;9.678;2022-07-29T11:58:07;6.72;;;1.50;;
65373;SDS011;52070;53.760;9.678;2022-07-29T12:00:37;5.10;;;1.60;;
65373;SDS011;52070;53.760;9.678;2022-07-29T12:03:06;6.20;;;1.52;;
65373;SDS011;52070;53.760;9.678;2022-07-29T12:05:35;4.07;;;1.50;;
65373;SDS011;52070;53.760;9.678;2022-07-29T12:08:05;7.25;;;1.58;;
65373;SDS011;52070;53.760;9.678;2022-07-29T12:10:44;5.60;;;1.73;;
65373;SDS011;52070;53.760;9.678;2022-07-29T12:13:12;4.38;;;1.40;;
65373;SDS011;52070;53.760;9.678;2022-07-29T12:15:42;4.68;;;1.30;;
65373;SDS011;52070;53.760;9.678;2022-07-29T12:18:18;4.20;;;1.40;;
65373;SDS011;52070;53.760;9.678;2022-07-29T12:20:46;5.18;;;1.40;;
65373;SDS011;52070;53.760;9.678;2022-07-29T12:23:14;4.70;;;1.48;;
65373;SDS011;52070;53.760;9.678;2022-07-29T12:25:42;3.10;;;1.45;;
65373;SDS011;52070;53.760;9.678;2022-07-29T12:28:11;6.20;;;1.77;;
65373;SDS011;52070;53.760;9.678;2022-07-29T12:30:43;4.13;;;1.58;;
65373;SDS011;52070;53.760;9.678;2022-07-29T12:33:15;6.28;;;1.65;;
65373;SDS011;52070;53.760;9.678;2022-07-29T12:35:45;4.57;;;1.50;;
65373;SDS011;52070;53.760;9.678;2022-07-29T12:38:15;4.22;;;1.50;;
65373;SDS011;52070;53.760;9.678;2022-07-29T12:40:43;3.28;;;1.48;;
65373;SDS011;52070;53.760;9.678;2022-07-29T12:43:13;5.28;;;1.70;;
65373;SDS011;52070;53.760;9.678;2022-07-29T12:45:45;5.95;;;1.70;;
65373;SDS011;52070;53.760;9.678;2022-07-29T12:48:13;3.58;;;1.50;;
65373;SDS011;52070;53.760;9.678;2022-07-29T12:50:53;4.18;;;1.42;;
65373;SDS011;52070;53.760;9.678;2022-07-29T12:53:21;7.03;;;1.45;;
65373;SDS011;52070;53.760;9.678;2022-07-29T12:55:50;3.53;;;1.48;;
65373;SDS011;52070;53.760;9.678;2022-07-29T12:58:30;5.78;;;1.30;;
65373;SDS011;52070;53.760;9.678;2022-07-29T13:01:02;7.18;;;1.80;;
65373;SDS011;52070;53.760;9.678;2022-07-29T13:03:41;6.03;;;1.60;;
65373;SDS011;52070;53.760;9.678;2022-07-29T13:09:03;5.38;;;1.50;;
65373;SDS011;52070;53.760;9.678;2022-07-29T13:11:32;7.57;;;1.60;;
65373;SDS011;52070;53.760;9.678;2022-07-29T13:14:01;4.60;;;1.50;;
65373;SDS011;52070;53.760;9.678;2022-07-29T13:16:29;12.43;;;1.63;;
65373;SDS011;52070;53.760;9.678;2022-07-29T13:19:03;4.18;;;1.70;;
65373;SDS011;52070;53.760;9.678;2022-07-29T13:21:31;2.45;;;1.38;;
65373;SDS011;52070;53.760;9.678;2022-07-29T13:23:59;4.32;;;1.42;;
65373;SDS011;52070;53.760;9.678;2022-07-29T13:26:26;5.60;;;1.40;;
65373;SDS011;52070;53.760;9.678;2022-07-29T13:28:56;6.20;;;1.60;;
65373;SDS011;52070;53.760;9.678;2022-07-29T13:33:51;6.80;;;1.48;;
65373;SDS011;52070;53.760;9.678;2022-07-29T13:36:18;5.40;;;1.75;;
65373;SDS011;52070;53.760;9.678;2022-07-29T13:38:45;6.72;;;1.70;;
65373;SDS011;52070;53.760;9.678;2022-07-29T13:41:12;4.93;;;1.65;;
65373;SDS011;52070;53.760;9.678;2022-07-29T13:43:39;6.78;;;1.67;;
65373;SDS011;52070;53.760;9.678;2022-07-29T13:46:06;6.00;;;1.30;;
65373;SDS011;52070;53.760;9.678;2022-07-29T13:48:33;6.63;;;1.63;;
65373;SDS011;52070;53.760;9.678;2022-07-29T13:51:02;8.95;;;1.80;;
65373;SDS011;52070;53.760;9.678;2022-07-29T13:53:29;7.43;;;1.50;;
65373;SDS011;52070;53.760;9.678;2022-07-29T13:55:56;4.65;;;1.52;;
65373;SDS011;52070;53.760;9.678;2022-07-29T13:58:23;3.83;;;1.60;;
65373;SDS011;52070;53.760;9.678;2022-07-29T14:00:50;8.35;;;1.70;;
65373;SDS011;52070;53.760;9.678;2022-07-29T14:03:17;4.95;;;1.60;;
65373;SDS011;52070;53.760;9.678;2022-07-29T14:05:44;4.50;;;1.40;;
65373;SDS011;52070;53.760;9.678;2022-07-29T14:08:12;3.55;;;1.50;;
65373;SDS011;52070;53.760;9.678;2022-07-29T14:10:39;3.67;;;1.45;;
65373;SDS011;52070;53.760;9.678;2022-07-29T14:13:06;6.95;;;1.77;;
65373;SDS011;52070;53.760;9.678;2022-07-29T14:15:33;5.85;;;1.38;;
65373;SDS011;52070;53.760;9.678;2022-07-29T14:18:00;2.33;;;1.23;;
65373;SDS011;52070;53.760;9.678;2022-07-29T14:20:27;9.23;;;1.80;;
65373;SDS011;52070;53.760;9.678;2022-07-29T14:22:55;5.25;;;1.58;;
65373;SDS011;52070;53.760;9.678;2022-07-29T14:25:23;5.43;;;1.75;;
65373;SDS011;52070;53.760;9.678;2022-07-29T14:27:50;5.45;;;1.50;;
65373;SDS011;52070;53.760;9.678;2022-07-29T14:30:18;2.58;;;1.50;;
65373;SDS011;52070;53.760;9.678;2022-07-29T14:32:47;6.63;;;1.80;;
65373;SDS011;52070;53.760;9.678;2022-07-29T14:35:15;8.65;;;1.67;;
65373;SDS011;52070;53.760;9.678;2022-07-29T14:37:42;5.13;;;1.40;;
65373;SDS011;52070;53.760;9.678;2022-07-29T14:40:09;8.35;;;1.73;;
65373;SDS011;52070;53.760;9.678;2022-07-29T14:42:41;6.00;;;1.70;;
65373;SDS011;52070;53.760;9.678;2022-07-29T14:45:08;5.50;;;1.75;;
65373;SDS011;52070;53.760;9.678;2022-07-29T14:47:36;6.78;;;1.75;;
65373;SDS011;52070;53.760;9.678;2022-07-29T14:50:04;6.05;;;1.60;;
65373;SDS011;52070;53.760;9.678;2022-07-29T14:52:32;12.77;;;1.80;;
65373;SDS011;52070;53.760;9.678;2022-07-29T14:54:59;4.35;;;1.60;;
65373;SDS011;52070;53.760;9.678;2022-07-29T14:57:26;4.80;;;1.75;;
65373;SDS011;52070;53.760;9.678;2022-07-29T14:59:55;4.55;;;1.67;;
65373;SDS011;52070;53.760;9.678;2022-07-29T15:02:22;4.75;;;1.70;;
65373;SDS011;52070;53.760;9.678;2022-07-29T15:04:49;5.15;;;1.50;;
65373;SDS011;52070;53.760;9.678;2022-07-29T15:07:16;5.15;;;1.60;;
65373;SDS011;52070;53.760;9.678;2022-07-29T15:09:43;4.10;;;1.63;;
65373;SDS011;52070;53.760;9.678;2022-07-29T15:12:10;6.68;;;1.60;;
65373;SDS011;52070;53.760;9.678;2022-07-29T15:14:38;6.45;;;1.60;;
65373;SDS011;52070;53.760;9.678;2022-07-29T15:17:06;4.57;;;1.73;;
65373;SDS011;52070;53.760;9.678;2022-07-29T15:19:33;4.40;;;1.48;;
65373;SDS011;52070;53.760;9.678;2022-07-29T15:22:00;5.72;;;1.77;;
65373;SDS011;52070;53.760;9.678;2022-07-29T15:24:27;4.50;;;1.75;;
65373;SDS011;52070;53.760;9.678;2022-07-29T15:26:54;3.60;;;1.50;;
65373;SDS011;52070;53.760;9.678;2022-07-29T15:29:21;5.82;;;1.75;;
65373;SDS011;52070;53.760;9.678;2022-07-29T15:31:49;9.02;;;1.92;;